Time;durP1;ratioP1;P1;durP2;ratioP2;P2;SDS_P1;SDS_P2;PMS_P1;PMS_P2;Temp;Humidity;BMP_temperature;BMP_pressure;BME280_temperature;BME280_humidity;BME280_pressure;Samples;Min_cycle;Max_cycle;Signal;HPM_P1;HPM_P2
2022/10/04 00:02:29;;;;;;;26.00;5.00;;;;;;;;;;6109440;23;20194;-90
2022/10/04 00:05:35;;;;;;;36.63;5.05;;;;;;;;;;6107246;23;20552;-92
2022/10/04 00:08:43;;;;;;;16.77;4.28;;;;;;;;;;6107787;23;20181;-91
2022/10/04 00:11:48;;;;;;;10.40;4.30;;;;;;;;;;6109761;23;20170;-90
2022/10/04 00:14:54;;;;;;;12.45;3.65;;;;;;;;;;6109785;23;20185;-90
2022/10/04 00:18:07;;;;;;;15.00;3.75;;;;;;;;;;6109837;23;20177;-92
2022/10/04 00:21:13;;;;;;;11.32;3.83;;;;;;;;;;6108070;23;20170;-91
2022/10/04 00:24:22;;;;;;;10.85;4.13;;;;;;;;;;6109707;23;20203;-90
2022/10/04 00:27:28;;;;;;;23.88;3.85;;;;;;;;;;6110752;23;20166;-91
2022/10/04 00:30:37;;;;;;;27.58;5.25;;;;;;;;;;6109862;23;20181;-91
2022/10/04 00:33:44;;;;;;;82.53;6.60;;;;;;;;;;6109203;23;20281;-91
2022/10/04 00:36:53;;;;;;;19.55;4.50;;;;;;;;;;6107820;23;20174;-88
2022/10/04 00:40:00;;;;;;;73.00;5.38;;;;;;;;;;6107387;23;20210;-90
2022/10/04 00:43:07;;;;;;;21.77;4.82;;;;;;;;;;6108143;23;20220;-91
2022/10/04 00:46:13;;;;;;;48.88;6.22;;;;;;;;;;6108632;23;20218;-91
2022/10/04 00:49:22;;;;;;;37.17;4.82;;;;;;;;;;6107465;23;20214;-90
2022/10/04 00:52:29;;;;;;;29.77;4.50;;;;;;;;;;6107018;23;20253;-89
2022/10/04 00:55:36;;;;;;;13.18;4.78;;;;;;;;;;6107412;23;20174;-91
2022/10/04 00:58:48;;;;;;;30.77;4.10;;;;;;;;;;6107150;23;20193;-92
2022/10/04 01:01:55;;;;;;;33.72;4.78;;;;;;;;;;6107244;23;20290;-92
2022/10/04 01:05:03;;;;;;;31.10;4.97;;;;;;;;;;6108782;23;20177;-92
2022/10/04 01:08:10;;;;;;;40.15;5.20;;;;;;;;;;6107953;23;20171;-90
2022/10/04 01:11:18;;;;;;;31.52;4.68;;;;;;;;;;6109161;23;20158;-90
2022/10/04 01:14:29;;;;;;;22.52;4.28;;;;;;;;;;6107469;23;20182;-88
2022/10/04 01:17:34;;;;;;;12.07;4.33;;;;;;;;;;6111338;23;20165;-90
2022/10/04 01:20:41;;;;;;;25.13;4.75;;;;;;;;;;6109109;23;20170;-91
2022/10/04 01:23:49;;;;;;;20.48;3.92;;;;;;;;;;6111490;23;20242;-91
2022/10/04 01:26:54;;;;;;;22.75;4.07;;;;;;;;;;6110043;23;20524;-90
2022/10/04 01:29:59;;;;;;;12.50;3.22;;;;;;;;;;6105663;23;20317;-90
2022/10/04 01:33:05;;;;;;;18.35;4.28;;;;;;;;;;6105740;23;20197;-91
2022/10/04 01:36:10;;;;;;;68.60;4.67;;;;;;;;;;6107893;23;20226;-90
2022/10/04 01:39:20;;;;;;;16.75;3.70;;;;;;;;;;6106080;23;20723;-92
2022/10/04 01:42:27;;;;;;;20.63;3.47;;;;;;;;;;6106930;23;20186;-91
2022/10/04 01:45:35;;;;;;;9.25;3.53;;;;;;;;;;6106669;23;20173;-92
2022/10/04 01:48:43;;;;;;;12.93;3.05;;;;;;;;;;6108203;23;20236;-89
2022/10/04 01:51:53;;;;;;;16.13;4.03;;;;;;;;;;6107287;23;20630;-90
2022/10/04 01:55:02;;;;;;;39.65;4.22;;;;;;;;;;6106449;23;20170;-89
2022/10/04 01:58:09;;;;;;;14.32;3.55;;;;;;;;;;6108458;23;20199;-90
2022/10/04 02:01:15;;;;;;;26.63;3.75;;;;;;;;;;6106662;23;20174;-91
2022/10/04 02:04:22;;;;;;;15.30;3.90;;;;;;;;;;6106629;23;20217;-91
2022/10/04 02:07:29;;;;;;;36.25;3.70;;;;;;;;;;6107777;23;20173;-93
2022/10/04 02:10:38;;;;;;;109.97;6.00;;;;;;;;;;6106057;23;20262;-92
2022/10/04 02:13:45;;;;;;;19.88;4.15;;;;;;;;;;6106096;23;20206;-90
2022/10/04 02:16:52;;;;;;;37.33;4.75;;;;;;;;;;6108753;23;20178;-92
2022/10/04 02:19:58;;;;;;;25.90;3.95;;;;;;;;;;6108680;23;20203;-92
2022/10/04 02:23:03;;;;;;;22.13;4.43;;;;;;;;;;6107132;23;20649;-92
2022/10/04 02:26:10;;;;;;;19.15;3.67;;;;;;;;;;6105916;23;20197;-92
2022/10/04 02:29:19;;;;;;;49.15;4.85;;;;;;;;;;6106000;23;20225;-90
2022/10/04 02:35:48;;;;;;;14.50;3.45;;;;;;;;;;6106874;23;20195;-92
2022/10/04 02:38:55;;;;;;;5.07;3.08;;;;;;;;;;6107024;23;20165;-91
2022/10/04 02:42:04;;;;;;;6.57;3.13;;;;;;;;;;6106347;23;20165;-90
2022/10/04 02:45:15;;;;;;;45.30;4.22;;;;;;;;;;6106490;23;20182;-90
2022/10/04 02:48:26;;;;;;;41.45;3.83;;;;;;;;;;6105171;23;20260;-91
2022/10/04 02:51:33;;;;;;;12.05;3.70;;;;;;;;;;6107202;23;20257;-92
2022/10/04 02:54:41;;;;;;;15.32;3.78;;;;;;;;;;6106485;23;20506;-90
2022/10/04 02:57:51;;;;;;;16.35;4.15;;;;;;;;;;6106471;23;20261;-90
2022/10/04 03:00:57;;;;;;;17.02;3.60;;;;;;;;;;6106541;23;20166;-90
2022/10/04 03:04:03;;;;;;;12.47;3.33;;;;;;;;;;6104040;23;20201;-89
2022/10/04 03:07:10;;;;;;;23.33;3.65;;;;;;;;;;6105953;23;20227;-91
2022/10/04 03:10:15;;;;;;;6.70;3.43;;;;;;;;;;6106387;23;20178;-90
2022/10/04 03:13:21;;;;;;;25.63;4.00;;;;;;;;;;6107079;23;20181;-91
2022/10/04 03:16:27;;;;;;;8.50;3.53;;;;;;;;;;6105981;23;20174;-89
2022/10/04 03:19:32;;;;;;;7.22;3.50;;;;;;;;;;6106137;23;20286;-91
2022/10/04 03:22:39;;;;;;;9.88;3.17;;;;;;;;;;6105684;23;20185;-91
2022/10/04 03:25:48;;;;;;;10.00;3.88;;;;;;;;;;6107370;23;20174;-91
2022/10/04 03:28:56;;;;;;;8.70;3.83;;;;;;;;;;6107870;23;20173;-91
2022/10/04 03:32:02;;;;;;;13.90;3.70;;;;;;;;;;6106342;23;20173;-92
2022/10/04 03:35:08;;;;;;;13.10;3.80;;;;;;;;;;6106255;23;20170;-93
2022/10/04 03:38:13;;;;;;;6.87;3.80;;;;;;;;;;6106939;23;20205;-90
2022/10/04 03:41:19;;;;;;;9.70;3.73;;;;;;;;;;6105751;23;20217;-90
2022/10/04 03:44:26;;;;;;;8.07;3.55;;;;;;;;;;6104092;23;20201;-90
2022/10/04 03:47:32;;;;;;;10.67;3.57;;;;;;;;;;6105267;23;20419;-92
2022/10/04 03:50:40;;;;;;;12.20;3.47;;;;;;;;;;6106169;23;20177;-91
2022/10/04 03:53:47;;;;;;;9.65;3.83;;;;;;;;;;6104259;23;20240;-91
2022/10/04 03:56:53;;;;;;;10.77;3.67;;;;;;;;;;6103556;23;20293;-91
2022/10/04 04:00:01;;;;;;;14.87;4.23;;;;;;;;;;6103870;23;20234;-90
2022/10/04 04:03:23;;;;;;;12.30;4.30;;;;;;;;;;6106271;23;20256;-91
2022/10/04 04:06:31;;;;;;;12.40;3.83;;;;;;;;;;6107846;23;20158;-91
2022/10/04 04:09:40;;;;;;;11.37;4.67;;;;;;;;;;6106555;23;20245;-90
2022/10/04 04:12:47;;;;;;;20.73;4.68;;;;;;;;;;6105163;23;20182;-90
2022/10/04 04:15:55;;;;;;;13.40;4.20;;;;;;;;;;6107486;23;20178;-90
2022/10/04 04:19:02;;;;;;;19.13;5.40;;;;;;;;;;6105253;23;20170;-91
2022/10/04 04:22:08;;;;;;;14.37;4.23;;;;;;;;;;6104771;23;20186;-92
2022/10/04 04:25:15;;;;;;;25.07;4.87;;;;;;;;;;6103561;23;20178;-91
2022/10/04 04:28:25;;;;;;;27.10;4.87;;;;;;;;;;6106572;23;20170;-91
2022/10/04 04:31:33;;;;;;;26.00;5.00;;;;;;;;;;6105089;23;20178;-91
2022/10/04 04:34:49;;;;;;;23.60;5.77;;;;;;;;;;6105010;23;20630;-91
2022/10/04 04:38:04;;;;;;;21.10;5.80;;;;;;;;;;6105461;23;20178;-91
2022/10/04 04:41:11;;;;;;;23.73;5.80;;;;;;;;;;6104518;23;20223;-91
2022/10/04 04:44:19;;;;;;;15.17;4.80;;;;;;;;;;6102287;23;20194;-90
2022/10/04 04:47:32;;;;;;;15.13;4.63;;;;;;;;;;6108051;23;20173;-93
2022/10/04 04:50:38;;;;;;;18.33;5.90;;;;;;;;;;6110650;23;20170;-91
2022/10/04 04:53:44;;;;;;;16.47;5.33;;;;;;;;;;6108134;23;20177;-90
2022/10/04 04:56:52;;;;;;;13.60;5.40;;;;;;;;;;6107938;23;20695;-91
2022/10/04 05:00:00;;;;;;;18.50;5.60;;;;;;;;;;6090102;23;20253;-90
2022/10/04 05:03:08;;;;;;;14.50;5.17;;;;;;;;;;6108620;23;20246;-91
2022/10/04 05:06:24;;;;;;;16.60;5.27;;;;;;;;;;6109371;23;20253;-90
2022/10/04 05:10:10;;;;;;;24.90;6.00;;;;;;;;;;6109642;23;20298;-92
2022/10/04 05:13:18;;;;;;;26.87;6.10;;;;;;;;;;6108370;23;20207;-92
2022/10/04 05:16:25;;;;;;;20.27;5.43;;;;;;;;;;6108911;23;20293;-90
2022/10/04 05:19:35;;;;;;;20.80;5.07;;;;;;;;;;6109558;23;20211;-90
2022/10/04 05:22:42;;;;;;;23.10;6.43;;;;;;;;;;6092451;23;20157;-90
2022/10/04 05:26:14;;;;;;;28.80;6.38;;;;;;;;;;6109377;23;20162;-91
2022/10/04 05:29:20;;;;;;;17.07;6.07;;;;;;;;;;6110190;23;20225;-90
2022/10/04 05:32:30;;;;;;;17.23;5.50;;;;;;;;;;6108985;23;20170;-89
2022/10/04 05:35:42;;;;;;;20.87;5.77;;;;;;;;;;6108495;23;20621;-92
2022/10/04 05:38:52;;;;;;;37.97;5.53;;;;;;;;;;6107254;23;20174;-92
2022/10/04 05:42:06;;;;;;;23.90;5.83;;;;;;;;;;6108852;23;20166;-92
2022/10/04 05:45:18;;;;;;;26.33;6.07;;;;;;;;;;6108558;23;20298;-90
2022/10/04 05:48:23;;;;;;;22.60;7.32;;;;;;;;;;6110426;23;20214;-91
2022/10/04 05:51:36;;;;;;;15.20;5.78;;;;;;;;;;6108091;23;20170;-90
2022/10/04 05:54:43;;;;;;;22.87;6.60;;;;;;;;;;6109722;23;20181;-91
2022/10/04 05:57:54;;;;;;;25.27;6.87;;;;;;;;;;6109400;23;20286;-90
2022/10/04 06:01:11;;;;;;;20.60;6.53;;;;;;;;;;6108111;23;20170;-90
2022/10/04 06:07:59;;;;;;;19.37;8.60;;;;;;;;;;6109465;23;20170;-89
2022/10/04 06:11:10;;;;;;;16.37;6.80;;;;;;;;;;6109081;23;20181;-90
2022/10/04 06:14:33;;;;;;;18.77;6.43;;;;;;;;;;6107744;23;20190;-90
2022/10/04 06:17:49;;;;;;;14.80;5.93;;;;;;;;;;6108233;23;20589;-89
2022/10/04 06:21:01;;;;;;;31.20;6.63;;;;;;;;;;6107265;23;20178;-89
2022/10/04 06:24:12;;;;;;;18.13;6.22;;;;;;;;;;6107881;23;20193;-91
2022/10/04 06:27:22;;;;;;;14.70;6.07;;;;;;;;;;6107254;23;20178;-92
2022/10/04 06:30:30;;;;;;;20.67;5.67;;;;;;;;;;6104508;23;20637;-88
2022/10/04 06:33:43;;;;;;;16.88;5.68;;;;;;;;;;6103956;23;20201;-89
2022/10/04 06:37:09;;;;;;;19.80;5.57;;;;;;;;;;6105888;23;20162;-87
2022/10/04 06:40:38;;;;;;;14.75;5.13;;;;;;;;;;6106812;23;20250;-90
2022/10/04 06:43:53;;;;;;;17.30;5.90;;;;;;;;;;6106237;23;20254;-92
2022/10/04 06:47:06;;;;;;;13.10;5.88;;;;;;;;;;6107316;23;20182;-90
2022/10/04 06:50:25;;;;;;;22.60;6.88;;;;;;;;;;6109325;23;20201;-91
2022/10/04 06:53:39;;;;;;;22.35;9.48;;;;;;;;;;6113648;23;20244;-91
2022/10/04 06:57:04;;;;;;;11.52;5.28;;;;;;;;;;6109576;23;20166;-89
2022/10/04 07:00:17;;;;;;;16.50;7.95;;;;;;;;;;6110582;23;20161;-93
2022/10/04 07:03:26;;;;;;;22.52;9.52;;;;;;;;;;6110743;23;20204;-92
2022/10/04 07:06:35;;;;;;;14.02;6.65;;;;;;;;;;6112061;23;20295;-92
2022/10/04 07:09:43;;;;;;;14.50;6.43;;;;;;;;;;6107213;23;20174;-93
2022/10/04 07:12:53;;;;;;;22.92;6.53;;;;;;;;;;6107167;23;20161;-91
2022/10/04 07:16:01;;;;;;;14.40;6.28;;;;;;;;;;6107186;23;20170;-92
2022/10/04 07:19:10;;;;;;;16.48;6.35;;;;;;;;;;6106610;23;20173;-91
2022/10/04 07:22:18;;;;;;;14.07;6.15;;;;;;;;;;6107078;23;20174;-91
2022/10/04 07:29:45;;;;;;;17.48;7.05;;;;;;;;;;6106874;23;20242;-91
2022/10/04 07:32:51;;;;;;;24.35;10.95;;;;;;;;;;6104805;23;20170;-93
2022/10/04 07:36:01;;;;;;;39.53;20.27;;;;;;;;;;6089270;23;20185;-91
2022/10/04 07:39:10;;;;;;;50.90;8.38;;;;;;;;;;6088468;23;20170;-92
2022/10/04 07:42:20;;;;;;;52.88;9.00;;;;;;;;;;6090754;23;20174;-93
2022/10/04 07:45:28;;;;;;;16.98;6.82;;;;;;;;;;6088209;23;20498;-92
2022/10/04 07:48:33;;;;;;;16.13;7.13;;;;;;;;;;6090485;23;20165;-92
2022/10/04 07:51:42;;;;;;;24.08;7.00;;;;;;;;;;6090176;23;20173;-90
2022/10/04 07:54:51;;;;;;;13.93;6.38;;;;;;;;;;6090744;23;20174;-89
2022/10/04 07:58:06;;;;;;;12.80;6.55;;;;;;;;;;6087655;23;20202;-89
2022/10/04 08:01:18;;;;;;;18.30;6.95;;;;;;;;;;6088697;23;20165;-91
2022/10/04 08:04:29;;;;;;;17.27;7.97;;;;;;;;;;6088870;23;20194;-89
2022/10/04 08:07:40;;;;;;;47.30;11.43;;;;;;;;;;6088755;23;20182;-89
2022/10/04 08:10:51;;;;;;;26.40;7.63;;;;;;;;;;6087356;23;20170;-88
2022/10/04 08:14:00;;;;;;;14.63;7.22;;;;;;;;;;6088811;23;20177;-90
2022/10/04 08:17:18;;;;;;;13.85;6.45;;;;;;;;;;6089349;23;20170;-89
2022/10/04 08:20:30;;;;;;;12.50;7.25;;;;;;;;;;6088482;23;20578;-88
2022/10/04 08:23:50;;;;;;;14.85;7.20;;;;;;;;;;6092526;23;20166;-89
2022/10/04 08:27:03;;;;;;;12.10;6.47;;;;;;;;;;6091585;23;20170;-90
2022/10/04 08:30:12;;;;;;;23.88;8.45;;;;;;;;;;6092223;23;20177;-89
2022/10/04 08:33:25;;;;;;;47.30;19.67;;;;;;;;;;6092322;23;20257;-90
2022/10/04 08:36:40;;;;;;;16.80;7.90;;;;;;;;;;6107989;23;20158;-89
2022/10/04 08:39:53;;;;;;;10.05;6.50;;;;;;;;;;6109764;23;20169;-90
2022/10/04 08:43:18;;;;;;;41.13;7.53;;;;;;;;;;6107872;23;20214;-89
